createdAt,value
2019-01-12T00:00:29.798Z,14.61
2019-01-12T00:01:29.780Z,14.58
2019-01-12T00:02:29.768Z,14.56
2019-01-12T00:03:29.763Z,14.61
2019-01-12T00:04:29.856Z,14.59
2019-01-12T00:05:29.737Z,14.58
2019-01-12T00:06:29.735Z,14.63
2019-01-12T00:07:29.713Z,14.55
2019-01-12T00:08:29.703Z,14.61
2019-01-12T00:09:29.698Z,14.62
2019-01-12T00:10:29.779Z,14.59
2019-01-12T00:11:29.671Z,14.59
2019-01-12T00:12:29.669Z,14.58
2019-01-12T00:13:29.653Z,14.53
2019-01-12T00:14:29.637Z,14.52
2019-01-12T00:15:29.628Z,14.53
2019-01-12T00:16:29.740Z,14.41
2019-01-12T00:17:29.609Z,14.49
2019-01-12T00:18:29.600Z,14.40
2019-01-12T00:19:29.588Z,14.38
2019-01-12T00:20:29.573Z,14.37
2019-01-12T00:21:29.564Z,14.30
2019-01-12T00:22:29.650Z,14.31
2019-01-12T00:23:29.549Z,14.40
2019-01-12T00:24:31.706Z,14.31
2019-01-12T00:25:29.519Z,14.31
2019-01-12T00:26:29.509Z,14.25
2019-01-12T00:27:29.496Z,14.31
2019-01-12T00:28:29.774Z,14.28
2019-01-12T00:29:29.477Z,14.37
2019-01-12T00:30:29.477Z,14.30
2019-01-12T00:31:29.454Z,14.25
2019-01-12T00:32:29.450Z,14.26
2019-01-12T00:33:29.434Z,14.20
2019-01-12T00:34:29.850Z,14.26
2019-01-12T00:35:29.423Z,14.08
2019-01-12T00:36:29.410Z,14.18
2019-01-12T00:37:29.397Z,14.11
2019-01-12T00:38:29.378Z,14.15
2019-01-12T00:39:29.371Z,14.16
2019-01-12T00:40:29.458Z,14.08
2019-01-12T00:41:29.353Z,14.13
2019-01-12T00:42:29.335Z,14.18
2019-01-12T00:43:29.323Z,14.13
2019-01-12T00:44:29.313Z,14.16
2019-01-12T00:45:29.306Z,14.22
2019-01-12T00:46:29.478Z,14.13
2019-01-12T00:47:29.283Z,14.16
2019-01-12T00:48:29.272Z,14.18
2019-01-12T00:49:29.263Z,14.13
2019-01-12T00:50:29.250Z,14.22
2019-01-12T00:51:29.237Z,14.11
2019-01-12T00:52:29.336Z,14.08
2019-01-12T00:53:29.224Z,14.19
2019-01-12T00:54:29.209Z,14.11
2019-01-12T00:55:29.198Z,14.23
2019-01-12T00:56:29.187Z,14.22
2019-01-12T00:57:29.172Z,14.13
2019-01-12T00:58:29.487Z,14.23
2019-01-12T00:59:29.154Z,14.20
2019-01-12T01:00:29.139Z,14.08
2019-01-12T01:01:29.134Z,14.15
2019-01-12T01:02:29.123Z,14.15
2019-01-12T01:03:29.121Z,14.18
2019-01-12T01:04:29.307Z,14.25
2019-01-12T01:05:29.091Z,14.18
2019-01-12T01:06:29.080Z,14.19
2019-01-12T01:07:29.066Z,14.08
2019-01-12T01:08:29.055Z,14.13
2019-01-12T01:09:29.049Z,14.30
2019-01-12T01:10:29.181Z,14.16
2019-01-12T01:11:29.026Z,14.12
2019-01-12T01:12:29.934Z,14.18
2019-01-12T01:13:29.000Z,14.12
2019-01-12T01:14:28.990Z,14.25
2019-01-12T01:15:28.982Z,14.25
2019-01-12T01:16:29.105Z,14.16
2019-01-12T01:17:28.975Z,14.13
2019-01-12T01:18:28.951Z,14.22
2019-01-12T01:19:28.938Z,14.13
2019-01-12T01:20:28.927Z,14.13
2019-01-12T01:21:28.918Z,14.20
2019-01-12T01:22:29.112Z,14.20
2019-01-12T01:23:28.900Z,14.25
2019-01-12T01:24:28.885Z,14.28
2019-01-12T01:25:28.876Z,14.26
2019-01-12T01:26:28.859Z,14.26
2019-01-12T01:27:28.849Z,14.31
2019-01-12T01:28:28.938Z,14.28
2019-01-12T01:29:28.834Z,14.25
2019-01-12T01:30:28.818Z,14.37
2019-01-12T01:31:28.814Z,14.31
2019-01-12T01:32:28.795Z,14.25
2019-01-12T01:33:28.792Z,14.28
2019-01-12T01:34:28.981Z,14.26
2019-01-12T01:35:28.778Z,14.31
2019-01-12T01:36:28.753Z,14.30
2019-01-12T01:37:28.745Z,14.28
2019-01-12T01:38:28.732Z,14.26
2019-01-12T01:39:28.723Z,14.26
2019-01-12T01:40:28.897Z,14.30
2019-01-12T01:41:28.713Z,14.28
2019-01-12T01:42:28.692Z,14.28
2019-01-12T01:43:28.685Z,14.16
2019-01-12T01:44:28.670Z,14.16
2019-01-12T01:45:28.655Z,14.15
2019-01-12T01:46:28.751Z,14.13
2019-01-12T01:47:28.645Z,14.15
2019-01-12T01:48:28.625Z,14.19
2019-01-12T01:49:28.612Z,14.13
2019-01-12T01:50:28.603Z,14.15
2019-01-12T01:51:28.599Z,14.08
2019-01-12T01:52:28.993Z,14.07
2019-01-12T01:53:28.577Z,14.13
2019-01-12T01:54:28.565Z,14.12
2019-01-12T01:55:28.549Z,14.05
2019-01-12T01:56:28.536Z,14.08
2019-01-12T01:57:28.527Z,14.12
2019-01-12T01:58:28.689Z,14.12
2019-01-12T01:59:28.504Z,14.15
2019-01-12T02:00:28.493Z,14.15
2019-01-12T02:01:28.487Z,14.15
2019-01-12T02:02:28.475Z,14.19
2019-01-12T02:03:28.463Z,14.18
2019-01-12T02:04:28.555Z,14.18
2019-01-12T02:05:28.439Z,14.18
2019-01-12T02:06:28.429Z,14.08
2019-01-12T02:07:28.422Z,14.16
2019-01-12T02:08:28.408Z,14.16
2019-01-12T02:09:28.396Z,14.16
2019-01-12T02:10:28.721Z,14.18
2019-01-12T02:11:28.377Z,14.15
2019-01-12T02:12:28.375Z,14.16
2019-01-12T02:13:28.352Z,14.15
2019-01-12T02:14:28.346Z,14.12
2019-01-12T02:15:28.334Z,14.11
2019-01-12T02:16:28.526Z,14.16
2019-01-12T02:17:28.313Z,14.22
2019-01-12T02:18:28.305Z,14.26
2019-01-12T02:19:28.289Z,14.16
2019-01-12T02:20:28.278Z,14.15
2019-01-12T02:21:28.269Z,14.22
2019-01-12T02:22:28.359Z,14.08
2019-01-12T02:23:28.249Z,14.19
2019-01-12T02:24:28.235Z,14.13
2019-01-12T02:25:28.223Z,14.19
2019-01-12T02:26:28.217Z,14.22
2019-01-12T02:27:28.206Z,14.16
2019-01-12T02:28:28.308Z,14.18
2019-01-12T02:29:28.182Z,14.19
2019-01-12T02:30:28.169Z,14.18
2019-01-12T02:31:28.163Z,14.13
2019-01-12T02:32:28.152Z,14.07
2019-01-12T02:33:28.137Z,14.07
2019-01-12T02:34:28.286Z,14.15
2019-01-12T02:35:28.117Z,14.03
2019-01-12T02:36:28.107Z,14.12
2019-01-12T02:37:28.095Z,14.11
2019-01-12T02:38:28.086Z,14.05
2019-01-12T02:39:28.074Z,14.05
2019-01-12T02:40:28.173Z,14.08
2019-01-12T02:41:28.063Z,14.04
2019-01-12T02:42:28.046Z,14.11
2019-01-12T02:43:28.031Z,14.05
2019-01-12T02:44:28.030Z,14.04
2019-01-12T02:45:28.014Z,14.01
2019-01-12T02:46:28.107Z,14.03
2019-01-12T02:47:27.987Z,14.04
2019-01-12T02:48:28.000Z,14.00
2019-01-12T02:49:27.965Z,14.04
2019-01-12T02:50:27.957Z,14.01
2019-01-12T02:51:27.955Z,13.97
2019-01-12T02:52:28.219Z,13.94
2019-01-12T02:53:27.924Z,13.89
2019-01-12T02:54:27.908Z,13.94
2019-01-12T02:55:27.899Z,13.78
2019-01-12T02:56:27.891Z,13.89
2019-01-12T02:57:27.891Z,13.85
2019-01-12T02:58:28.159Z,13.87
2019-01-12T02:59:27.860Z,13.71
2019-01-12T03:00:27.850Z,13.76
2019-01-12T03:01:27.837Z,13.82
2019-01-12T03:02:27.830Z,13.75
2019-01-12T03:03:27.833Z,13.73
2019-01-12T03:04:27.911Z,13.70
2019-01-12T03:05:27.798Z,13.68
2019-01-12T03:06:27.784Z,13.64
2019-01-12T03:07:27.770Z,13.70
2019-01-12T03:08:27.764Z,13.73
2019-01-12T03:09:27.756Z,13.62
2019-01-12T03:10:27.834Z,13.64
2019-01-12T03:11:27.730Z,13.64
2019-01-12T03:12:27.718Z,13.65
2019-01-12T03:13:27.713Z,13.61
2019-01-12T03:14:27.697Z,13.58
2019-01-12T03:15:27.695Z,13.61
2019-01-12T03:16:27.846Z,13.60
2019-01-12T03:17:27.679Z,13.54
2019-01-12T03:18:27.655Z,13.57
2019-01-12T03:19:27.643Z,13.58
2019-01-12T03:20:27.630Z,13.47
2019-01-12T03:21:27.620Z,13.49
2019-01-12T03:22:27.788Z,13.49
2019-01-12T03:23:27.600Z,13.54
2019-01-12T03:24:27.602Z,13.49
2019-01-12T03:25:27.576Z,13.54
2019-01-12T03:26:27.564Z,13.55
2019-01-12T03:27:27.563Z,13.54
2019-01-12T03:28:27.649Z,13.54
2019-01-12T03:29:27.543Z,13.50
2019-01-12T03:30:27.531Z,13.50
2019-01-12T03:31:27.512Z,13.55
2019-01-12T03:32:27.511Z,13.58
2019-01-12T03:33:27.496Z,13.64
2019-01-12T03:34:27.680Z,13.65
2019-01-12T03:35:27.472Z,13.62
2019-01-12T03:36:27.459Z,13.67
2019-01-12T03:37:27.447Z,13.64
2019-01-12T03:38:27.439Z,13.71
2019-01-12T03:39:27.425Z,13.62
2019-01-12T03:40:27.871Z,13.67
2019-01-12T03:41:27.409Z,13.70
2019-01-12T03:42:27.396Z,13.64
2019-01-12T03:43:27.385Z,13.70
2019-01-12T03:44:27.373Z,13.71
2019-01-12T03:45:27.374Z,13.61
2019-01-12T03:46:27.458Z,13.62
2019-01-12T03:47:27.347Z,13.71
2019-01-12T03:48:27.333Z,13.70
2019-01-12T03:49:27.323Z,13.65
2019-01-12T03:50:27.310Z,13.61
2019-01-12T03:51:27.300Z,13.67
2019-01-12T03:52:27.395Z,13.67
2019-01-12T03:53:27.277Z,13.68
2019-01-12T03:54:27.265Z,13.70
2019-01-12T03:55:27.256Z,13.64
2019-01-12T03:56:27.260Z,13.62
2019-01-12T03:57:27.234Z,13.64
2019-01-12T03:58:27.540Z,13.67
2019-01-12T03:59:27.211Z,13.61
2019-01-12T04:00:27.201Z,13.62
2019-01-12T04:01:27.192Z,13.70
2019-01-12T04:02:27.178Z,13.65
2019-01-12T04:03:27.174Z,13.67
2019-01-12T04:04:27.260Z,13.68
2019-01-12T04:05:27.148Z,13.73
2019-01-12T04:06:27.135Z,13.70
2019-01-12T04:07:27.121Z,13.64
2019-01-12T04:08:27.117Z,13.68
2019-01-12T04:09:27.105Z,13.67
2019-01-12T04:10:27.192Z,13.67
2019-01-12T04:11:27.083Z,13.67
2019-01-12T04:12:27.074Z,13.73
2019-01-12T04:13:27.092Z,13.76
2019-01-12T04:14:27.053Z,13.78
2019-01-12T04:15:27.043Z,13.86
2019-01-12T04:16:27.236Z,13.75
2019-01-12T04:17:27.019Z,13.82
2019-01-12T04:18:27.007Z,13.83
2019-01-12T04:19:27.002Z,13.79
2019-01-12T04:20:26.983Z,13.87
2019-01-12T04:21:26.980Z,13.68
2019-01-12T04:22:27.069Z,13.79
2019-01-12T04:23:26.954Z,13.85
2019-01-12T04:24:26.943Z,13.78
2019-01-12T04:25:33.497Z,13.79
2019-01-12T04:26:27.920Z,13.89
2019-01-12T04:27:26.912Z,13.86
2019-01-12T04:28:26.999Z,13.82
2019-01-12T04:29:26.885Z,13.86
2019-01-12T04:30:26.880Z,13.78
2019-01-12T04:31:26.869Z,13.79
2019-01-12T04:32:26.856Z,13.80
2019-01-12T04:33:26.851Z,13.83
2019-01-12T04:34:27.015Z,13.73
2019-01-12T04:35:26.823Z,13.79
2019-01-12T04:36:26.810Z,13.73
2019-01-12T04:37:26.803Z,13.65
2019-01-12T04:38:26.794Z,13.70
2019-01-12T04:39:26.793Z,13.68
2019-01-12T04:40:26.870Z,13.65
2019-01-12T04:41:26.759Z,13.65
2019-01-12T04:42:26.749Z,13.65
2019-01-12T04:43:26.741Z,13.61
2019-01-12T04:44:26.726Z,13.61
2019-01-12T04:45:26.719Z,13.68
2019-01-12T04:46:26.829Z,13.62
2019-01-12T04:47:26.690Z,13.61
2019-01-12T04:48:26.680Z,13.57
2019-01-12T04:49:26.674Z,13.62
2019-01-12T04:50:26.668Z,13.60
2019-01-12T04:51:26.652Z,13.54
2019-01-12T04:52:26.836Z,13.52
2019-01-12T04:53:26.626Z,13.55
2019-01-12T04:54:26.614Z,13.55
2019-01-12T04:55:26.606Z,13.54
2019-01-12T04:56:26.596Z,13.52
2019-01-12T04:57:26.587Z,13.57
2019-01-12T04:58:26.773Z,13.57
2019-01-12T04:59:26.580Z,13.49
2019-01-12T05:00:26.552Z,13.54
2019-01-12T05:01:26.539Z,13.52
2019-01-12T05:02:27.865Z,13.47
2019-01-12T05:03:26.522Z,13.58
2019-01-12T05:04:26.607Z,13.47
2019-01-12T05:05:26.498Z,13.49
2019-01-12T05:06:26.489Z,13.52
2019-01-12T05:07:26.476Z,13.47
2019-01-12T05:08:26.465Z,13.52
2019-01-12T05:09:26.456Z,13.50
2019-01-12T05:10:26.641Z,13.58
2019-01-12T05:11:26.434Z,13.57
2019-01-12T05:12:26.425Z,13.46
2019-01-12T05:13:26.411Z,13.52
2019-01-12T05:14:26.400Z,13.52
2019-01-12T05:15:26.390Z,13.52
2019-01-12T05:16:26.578Z,13.52
2019-01-12T05:17:26.367Z,13.49
2019-01-12T05:18:26.359Z,13.45
2019-01-12T05:19:26.346Z,13.55
2019-01-12T05:20:26.339Z,13.52
2019-01-12T05:21:26.331Z,13.49
2019-01-12T05:22:26.414Z,13.54
2019-01-12T05:23:26.308Z,13.57
2019-01-12T05:24:26.298Z,13.52
2019-01-12T05:25:26.280Z,13.45
2019-01-12T05:26:26.270Z,13.52
2019-01-12T05:27:26.269Z,13.47
2019-01-12T05:28:26.547Z,13.50
2019-01-12T05:29:26.241Z,13.47
2019-01-12T05:30:26.230Z,13.46
2019-01-12T05:31:26.223Z,13.55
2019-01-12T05:32:26.209Z,13.49
2019-01-12T05:33:26.204Z,13.49
2019-01-12T05:34:26.293Z,13.49
2019-01-12T05:35:26.178Z,13.55
2019-01-12T05:36:26.163Z,13.54
2019-01-12T05:37:26.155Z,13.58
2019-01-12T05:38:26.144Z,13.57
2019-01-12T05:39:26.134Z,13.67
2019-01-12T05:40:26.213Z,13.65
2019-01-12T05:41:26.113Z,13.70
2019-01-12T05:42:26.100Z,13.65
2019-01-12T05:43:26.090Z,13.71
2019-01-12T05:44:26.081Z,13.71
2019-01-12T05:45:26.085Z,13.73
2019-01-12T05:46:26.153Z,13.78
2019-01-12T05:47:26.050Z,13.76
2019-01-12T05:48:26.036Z,13.71
2019-01-12T05:49:26.022Z,13.79
2019-01-12T05:50:26.014Z,13.78
2019-01-12T05:51:26.006Z,13.83
2019-01-12T05:52:26.163Z,13.82
2019-01-12T05:53:25.988Z,13.82
2019-01-12T05:54:25.968Z,13.87
2019-01-12T05:55:25.966Z,13.87
2019-01-12T05:56:25.951Z,13.89
2019-01-12T05:57:25.940Z,13.89
2019-01-12T05:58:26.050Z,13.87
2019-01-12T05:59:25.915Z,13.83
2019-01-12T06:00:25.906Z,13.95
2019-01-12T06:01:25.901Z,14.00
2019-01-12T06:02:25.881Z,14.01
2019-01-12T06:03:25.873Z,14.01
2019-01-12T06:04:25.966Z,14.11
2019-01-12T06:05:25.853Z,14.13
2019-01-12T06:06:25.843Z,14.15
2019-01-12T06:07:25.827Z,14.23
2019-01-12T06:08:25.820Z,14.12
2019-01-12T06:09:25.810Z,14.26
2019-01-12T06:10:26.076Z,14.26
2019-01-12T06:11:25.791Z,14.31
2019-01-12T06:12:25.780Z,14.41
2019-01-12T06:13:25.767Z,14.37
2019-01-12T06:14:25.754Z,14.45
2019-01-12T06:15:25.741Z,14.53
2019-01-12T06:16:25.845Z,14.53
2019-01-12T06:17:25.720Z,14.63
2019-01-12T06:18:25.711Z,14.62
2019-01-12T06:19:25.698Z,14.71
2019-01-12T06:20:25.691Z,14.67
2019-01-12T06:21:25.681Z,14.71
2019-01-12T06:22:25.789Z,14.73
2019-01-12T06:23:25.657Z,14.73
2019-01-12T06:24:25.651Z,14.89
2019-01-12T06:25:25.646Z,14.85
2019-01-12T06:26:25.627Z,14.92
2019-01-12T06:27:25.617Z,14.92
2019-01-12T06:28:25.706Z,14.97
2019-01-12T06:29:25.593Z,15.04
2019-01-12T06:30:25.583Z,15.07
2019-01-12T06:31:25.572Z,15.05
2019-01-12T06:32:25.561Z,15.04
2019-01-12T06:33:25.551Z,15.08
2019-01-12T06:34:25.644Z,15.11
2019-01-12T06:35:25.529Z,15.19
2019-01-12T06:36:25.518Z,15.10
2019-01-12T06:37:25.512Z,15.25
2019-01-12T06:38:25.508Z,15.23
2019-01-12T06:39:25.490Z,15.22
2019-01-12T06:40:25.645Z,15.35
2019-01-12T06:41:25.465Z,15.27
2019-01-12T06:42:25.450Z,15.33
2019-01-12T06:43:25.445Z,15.41
2019-01-12T06:44:25.486Z,15.43
2019-01-12T06:45:25.429Z,15.45
2019-01-12T06:46:25.576Z,15.51
2019-01-12T06:47:25.401Z,15.47
2019-01-12T06:48:25.385Z,15.59
2019-01-12T06:49:25.390Z,15.55
2019-01-12T06:50:25.370Z,15.63
2019-01-12T06:51:25.356Z,15.59
2019-01-12T06:52:25.799Z,15.65
2019-01-12T06:53:25.334Z,15.67
2019-01-12T06:54:25.355Z,15.70
2019-01-12T06:55:25.312Z,15.72
2019-01-12T06:56:25.303Z,15.80
2019-01-12T06:57:25.289Z,15.76
2019-01-12T06:58:25.450Z,15.75
2019-01-12T06:59:25.278Z,15.72
2019-01-12T07:00:25.266Z,15.85
2019-01-12T07:01:25.252Z,15.96
2019-01-12T07:02:25.239Z,15.88
2019-01-12T07:03:25.233Z,15.96
2019-01-12T07:04:25.450Z,16.02
2019-01-12T07:05:25.213Z,15.94
2019-01-12T07:06:25.197Z,16.02
2019-01-12T07:07:25.187Z,16.08
2019-01-12T07:08:25.174Z,16.16
2019-01-12T07:09:25.162Z,16.12
2019-01-12T07:10:25.257Z,16.21
2019-01-12T07:11:25.141Z,16.31
2019-01-12T07:12:25.134Z,16.29
2019-01-12T07:13:25.134Z,16.32
2019-01-12T07:14:25.106Z,16.28
2019-01-12T07:15:25.104Z,16.34
2019-01-12T07:16:25.261Z,16.41
2019-01-12T07:17:27.194Z,16.47
2019-01-12T07:18:25.063Z,16.62
2019-01-12T07:19:25.059Z,16.59
2019-01-12T07:20:25.064Z,16.69
2019-01-12T07:21:25.036Z,16.72
2019-01-12T07:22:25.306Z,16.83
2019-01-12T07:23:25.013Z,16.84
2019-01-12T07:24:25.032Z,16.98
2019-01-12T07:25:24.993Z,16.91
2019-01-12T07:26:24.980Z,17.04
2019-01-12T07:27:24.976Z,17.20
2019-01-12T07:28:25.060Z,17.17
2019-01-12T07:29:24.948Z,17.31
2019-01-12T07:30:24.931Z,17.35
2019-01-12T07:31:24.930Z,17.35
2019-01-12T07:32:24.920Z,17.53
2019-01-12T07:33:24.907Z,17.52
2019-01-12T07:34:24.987Z,17.68
2019-01-12T07:35:24.890Z,17.60
2019-01-12T07:36:24.874Z,17.73
2019-01-12T07:37:24.875Z,17.65
2019-01-12T07:38:24.849Z,17.72
2019-01-12T07:39:24.839Z,17.76
2019-01-12T07:40:24.997Z,17.88
2019-01-12T07:41:24.850Z,17.88
2019-01-12T07:42:24.812Z,17.90
2019-01-12T07:43:24.825Z,17.94
2019-01-12T07:44:24.804Z,17.98
2019-01-12T07:45:24.785Z,18.02
2019-01-12T07:46:24.967Z,18.02
2019-01-12T07:47:24.749Z,18.03
2019-01-12T07:48:24.739Z,18.00
2019-01-12T07:49:24.732Z,18.02
2019-01-12T07:50:24.718Z,18.02
2019-01-12T07:51:24.711Z,18.05
2019-01-12T07:52:24.795Z,18.13
2019-01-12T07:53:24.688Z,18.05
2019-01-12T07:54:24.676Z,18.15
2019-01-12T07:55:24.669Z,18.12
2019-01-12T07:56:24.849Z,18.12
2019-01-12T07:57:24.646Z,18.23
2019-01-12T07:58:24.802Z,18.33
2019-01-12T07:59:24.623Z,18.28
2019-01-12T08:00:24.611Z,18.33
2019-01-12T08:01:24.605Z,18.33
2019-01-12T08:02:24.593Z,18.43
2019-01-12T08:03:24.598Z,18.52
2019-01-12T08:04:24.693Z,18.49
2019-01-12T08:05:24.556Z,18.55
2019-01-12T08:06:24.544Z,18.63
2019-01-12T08:07:24.540Z,18.61
2019-01-12T08:08:24.530Z,18.73
2019-01-12T08:09:24.517Z,18.86
2019-01-12T08:10:24.679Z,18.81
2019-01-12T08:11:24.496Z,18.83
2019-01-12T08:12:24.497Z,18.97
2019-01-12T08:13:24.474Z,19.07
2019-01-12T08:14:24.462Z,19.09
2019-01-12T08:15:24.453Z,19.23
2019-01-12T08:16:24.869Z,19.27
2019-01-12T08:17:24.429Z,19.30
2019-01-12T08:18:24.420Z,19.37
2019-01-12T08:19:24.439Z,19.56
2019-01-12T08:20:24.398Z,19.66
2019-01-12T08:21:24.387Z,19.74
2019-01-12T08:22:24.488Z,19.75
2019-01-12T08:23:24.365Z,19.84
2019-01-12T08:24:24.357Z,20.07
2019-01-12T08:25:24.348Z,20.14
2019-01-12T08:26:30.945Z,20.22
2019-01-12T08:27:25.423Z,20.42
2019-01-12T08:28:24.328Z,20.50
2019-01-12T08:29:24.319Z,20.63
2019-01-12T08:30:24.307Z,20.82
2019-01-12T08:31:24.279Z,20.89
2019-01-12T08:32:24.270Z,21.04
2019-01-12T08:33:24.572Z,21.05
2019-01-12T08:34:24.254Z,21.14
2019-01-12T08:35:24.235Z,21.30
2019-01-12T08:36:24.230Z,21.48
2019-01-12T08:37:24.218Z,21.62
2019-01-12T08:38:24.207Z,21.70
2019-01-12T08:39:24.391Z,21.85
2019-01-12T08:40:24.187Z,21.89
2019-01-12T08:41:24.177Z,22.10
2019-01-12T08:42:24.160Z,22.08
2019-01-12T08:43:24.149Z,22.19
2019-01-12T08:44:24.139Z,22.33
2019-01-12T08:45:24.244Z,22.40
2019-01-12T08:46:24.125Z,22.44
2019-01-12T08:47:24.108Z,22.53
2019-01-12T08:48:24.095Z,22.49
2019-01-12T08:49:24.087Z,22.59
2019-01-12T08:50:24.072Z,22.61
2019-01-12T08:51:24.168Z,22.70
2019-01-12T08:52:24.056Z,22.71
2019-01-12T08:53:24.041Z,22.77
2019-01-12T08:54:24.031Z,22.80
2019-01-12T08:55:24.750Z,22.83
2019-01-12T08:56:24.014Z,22.86
2019-01-12T08:57:24.172Z,22.95
2019-01-12T08:58:23.986Z,23.04
2019-01-12T08:59:23.978Z,23.08
2019-01-12T09:00:23.967Z,23.17
2019-01-12T09:01:23.956Z,23.17
2019-01-12T09:02:23.945Z,23.10
2019-01-12T09:03:24.058Z,23.11
2019-01-12T09:04:23.930Z,23.20
2019-01-12T09:05:23.911Z,23.21
2019-01-12T09:06:23.900Z,23.23
2019-01-12T09:07:23.891Z,23.25
2019-01-12T09:08:23.880Z,23.36
2019-01-12T09:09:23.993Z,23.29
2019-01-12T09:10:23.862Z,23.39
2019-01-12T09:11:23.844Z,23.44
2019-01-12T09:12:23.834Z,23.47
2019-01-12T09:13:23.829Z,23.49
2019-01-12T09:14:23.815Z,23.51
2019-01-12T09:15:24.236Z,23.54
2019-01-12T09:16:23.797Z,23.54
2019-01-12T09:17:23.780Z,23.59
2019-01-12T09:18:23.772Z,23.59
2019-01-12T09:19:23.762Z,23.64
2019-01-12T09:20:23.748Z,23.62
2019-01-12T09:21:23.839Z,23.62
2019-01-12T09:22:23.733Z,23.64
2019-01-12T09:23:23.718Z,23.64
2019-01-12T09:24:23.708Z,23.70
2019-01-12T09:25:23.693Z,23.63
2019-01-12T09:26:23.682Z,23.58
2019-01-12T09:27:23.789Z,23.55
2019-01-12T09:28:23.662Z,23.48
2019-01-12T09:29:23.649Z,23.44
2019-01-12T09:30:23.641Z,23.45
2019-01-12T09:31:23.634Z,23.40
2019-01-12T09:32:23.617Z,23.39
2019-01-12T09:33:23.987Z,23.34
2019-01-12T09:34:23.600Z,23.28
2019-01-12T09:35:23.584Z,23.29
2019-01-12T09:36:23.579Z,23.25
2019-01-12T09:37:23.609Z,23.34
2019-01-12T09:38:23.561Z,23.26
2019-01-12T09:39:23.638Z,23.33
2019-01-12T09:40:23.535Z,23.29
2019-01-12T09:41:23.523Z,23.28
2019-01-12T09:42:23.512Z,23.36
2019-01-12T09:43:23.575Z,23.33
2019-01-12T09:44:23.490Z,23.39
2019-01-12T09:45:23.591Z,23.34
2019-01-12T09:46:23.472Z,23.48
2019-01-12T09:47:23.459Z,23.47
2019-01-12T09:48:23.447Z,23.55
2019-01-12T09:49:23.435Z,23.62
2019-01-12T09:50:23.424Z,23.64
2019-01-12T09:51:23.590Z,23.70
2019-01-12T09:52:23.409Z,23.76
2019-01-12T09:53:23.392Z,23.96
2019-01-12T09:54:23.382Z,23.92
2019-01-12T09:55:23.367Z,23.96
2019-01-12T09:56:23.356Z,24.11
2019-01-12T09:57:23.528Z,24.11
2019-01-12T09:58:23.358Z,24.28
2019-01-12T09:59:23.328Z,24.36
2019-01-12T10:00:23.319Z,24.55
2019-01-12T10:01:23.305Z,24.66
2019-01-12T10:02:23.293Z,24.85
2019-01-12T10:03:23.395Z,24.85
2019-01-12T10:04:23.278Z,25.07
2019-01-12T10:05:23.272Z,25.14
2019-01-12T10:06:23.252Z,25.22
2019-01-12T10:07:23.240Z,25.34
2019-01-12T10:08:23.232Z,25.58
2019-01-12T10:09:23.373Z,25.71
2019-01-12T10:10:23.206Z,25.91
2019-01-12T10:11:23.198Z,26.06
2019-01-12T10:12:23.185Z,26.29
2019-01-12T10:13:23.177Z,26.51
2019-01-12T10:14:23.166Z,26.82
2019-01-12T10:15:23.345Z,27.16
2019-01-12T10:16:23.144Z,27.37
2019-01-12T10:17:23.133Z,27.63
2019-01-12T10:18:23.120Z,27.82
2019-01-12T10:19:23.109Z,28.00
2019-01-12T10:20:23.100Z,28.20
2019-01-12T10:21:23.299Z,28.53
2019-01-12T10:22:28.508Z,28.62
2019-01-12T10:23:24.063Z,28.92
2019-01-12T10:24:23.059Z,29.02
2019-01-12T10:25:23.063Z,29.15
2019-01-12T10:26:23.037Z,29.28
2019-01-12T10:27:23.139Z,29.44
2019-01-12T10:28:23.022Z,29.74
2019-01-12T10:29:23.037Z,29.80
2019-01-12T10:30:22.991Z,29.96
2019-01-12T10:31:23.019Z,30.29
2019-01-12T10:32:22.972Z,30.52
2019-01-12T10:33:23.141Z,30.70
2019-01-12T10:34:22.959Z,30.89
2019-01-12T10:35:23.030Z,31.10
2019-01-12T10:36:22.950Z,31.10
2019-01-12T10:37:22.995Z,31.35
2019-01-12T10:38:22.918Z,31.55
2019-01-12T10:39:23.239Z,31.69
2019-01-12T10:40:22.912Z,31.79
2019-01-12T10:41:23.580Z,32.05
2019-01-12T10:42:22.891Z,32.24
2019-01-12T10:43:22.885Z,32.31
2019-01-12T10:44:22.973Z,32.31
2019-01-12T10:45:23.559Z,32.35
2019-01-12T10:46:22.874Z,32.39
2019-01-12T10:47:23.722Z,32.39
2019-01-12T10:48:22.822Z,32.37
2019-01-12T10:49:22.811Z,32.48
2019-01-12T10:50:22.787Z,32.75
2019-01-12T10:51:23.277Z,33.16
2019-01-12T10:52:22.766Z,33.08
2019-01-12T10:53:22.758Z,32.94
2019-01-12T10:54:23.680Z,33.08
2019-01-12T10:55:22.739Z,33.35
2019-01-12T10:56:22.742Z,33.87
2019-01-12T10:57:23.044Z,33.97
2019-01-12T10:58:22.702Z,33.81
2019-01-12T10:59:23.585Z,34.50
2019-01-12T11:00:22.766Z,35.13
2019-01-12T11:01:22.674Z,34.70
2019-01-12T11:02:22.665Z,34.50
2019-01-12T11:03:22.762Z,34.10
2019-01-12T11:04:22.646Z,33.61
2019-01-12T11:05:22.625Z,33.65
2019-01-12T11:06:22.614Z,34.00
2019-01-12T11:07:22.604Z,34.44
2019-01-12T11:08:22.590Z,35.05
2019-01-12T11:09:22.856Z,35.22
2019-01-12T11:10:22.569Z,35.26
2019-01-12T11:11:22.562Z,35.44
2019-01-12T11:12:22.571Z,35.42
2019-01-12T11:13:22.540Z,36.14
2019-01-12T11:14:22.530Z,36.29
2019-01-12T11:15:22.625Z,36.22
2019-01-12T11:16:22.509Z,36.26
2019-01-12T11:17:22.505Z,36.59
2019-01-12T11:18:22.489Z,36.57
2019-01-12T11:19:22.480Z,36.80
2019-01-12T11:20:22.466Z,36.81
2019-01-12T11:21:22.642Z,36.63
2019-01-12T11:22:22.450Z,36.62
2019-01-12T11:23:22.443Z,36.47
2019-01-12T11:24:22.425Z,35.87
2019-01-12T11:25:22.413Z,35.54
2019-01-12T11:26:22.405Z,35.59
2019-01-12T11:27:22.490Z,35.52
2019-01-12T11:28:22.387Z,35.26
2019-01-12T11:29:22.376Z,35.34
2019-01-12T11:30:22.361Z,35.53
2019-01-12T11:31:22.357Z,35.61
2019-01-12T11:32:22.340Z,35.93
2019-01-12T11:33:22.513Z,36.09
2019-01-12T11:34:22.322Z,36.25
2019-01-12T11:35:22.312Z,36.50
2019-01-12T11:36:22.300Z,36.67
2019-01-12T11:37:22.289Z,36.70
2019-01-12T11:38:22.277Z,36.63
2019-01-12T11:39:22.455Z,36.53
2019-01-12T11:40:22.260Z,36.57
2019-01-12T11:41:22.248Z,36.50
2019-01-12T11:42:22.238Z,36.63
2019-01-12T11:43:22.225Z,36.70
2019-01-12T11:44:22.214Z,36.97
2019-01-12T11:45:22.306Z,37.03
2019-01-12T11:46:22.202Z,37.23
2019-01-12T11:47:22.183Z,37.33
2019-01-12T11:48:22.172Z,37.34
2019-01-12T11:49:22.162Z,37.31
2019-01-12T11:50:22.150Z,37.40
2019-01-12T11:51:22.729Z,37.31
2019-01-12T11:52:22.140Z,37.34
2019-01-12T11:53:22.126Z,37.47
2019-01-12T11:54:22.111Z,37.56
2019-01-12T11:55:22.104Z,37.53
2019-01-12T11:56:22.099Z,37.58
2019-01-12T11:57:27.308Z,37.66
2019-01-12T11:58:22.083Z,37.79
2019-01-12T11:59:22.059Z,37.85
2019-01-12T12:00:22.055Z,37.78
2019-01-12T12:01:22.055Z,37.68
2019-01-12T12:02:22.028Z,37.61
2019-01-12T12:03:22.121Z,37.61
2019-01-12T12:04:22.005Z,37.71
2019-01-12T12:05:21.999Z,37.71
2019-01-12T12:06:21.988Z,37.56
2019-01-12T12:07:21.973Z,37.33
2019-01-12T12:08:21.963Z,37.22
2019-01-12T12:09:22.228Z,37.18
2019-01-12T12:10:21.946Z,37.21
2019-01-12T12:11:21.932Z,37.31
2019-01-12T12:12:21.923Z,37.34
2019-01-12T12:13:21.911Z,37.47
2019-01-12T12:14:21.901Z,37.50
2019-01-12T12:15:21.997Z,37.47
2019-01-12T12:16:21.879Z,37.57
2019-01-12T12:17:21.879Z,37.54
2019-01-12T12:18:21.859Z,37.45
2019-01-12T12:19:21.849Z,37.26
2019-01-12T12:20:21.851Z,37.34
2019-01-12T12:21:21.935Z,37.29
2019-01-12T12:22:21.817Z,37.37
2019-01-12T12:23:21.811Z,37.48
2019-01-12T12:24:21.802Z,37.47
2019-01-12T12:25:21.786Z,37.41
2019-01-12T12:26:21.778Z,37.45
2019-01-12T12:27:25.942Z,37.33
2019-01-12T12:28:21.755Z,37.34
2019-01-12T12:29:21.745Z,37.26
2019-01-12T12:30:21.737Z,37.19
2019-01-12T12:31:21.728Z,37.19
2019-01-12T12:32:21.722Z,37.11
2019-01-12T12:33:21.827Z,37.14
2019-01-12T12:34:21.691Z,37.15
2019-01-12T12:35:21.684Z,37.18
2019-01-12T12:36:21.672Z,37.10
2019-01-12T12:37:21.667Z,37.09
2019-01-12T12:38:21.651Z,37.07
2019-01-12T12:39:21.751Z,36.99
2019-01-12T12:40:21.631Z,37.16
2019-01-12T12:41:21.619Z,37.23
2019-01-12T12:42:21.611Z,37.40
2019-01-12T12:43:22.185Z,37.45
2019-01-12T12:44:21.591Z,37.50
2019-01-12T12:45:21.692Z,37.48
2019-01-12T12:46:21.586Z,37.50
2019-01-12T12:47:21.563Z,37.56
2019-01-12T12:48:21.547Z,37.48
2019-01-12T12:49:21.569Z,37.53
2019-01-12T12:50:21.535Z,37.58
2019-01-12T12:51:21.614Z,37.60
2019-01-12T12:52:21.505Z,37.61